Time;durP1;ratioP1;P1;durP2;ratioP2;P2;SDS_P1;SDS_P2;PMS_P1;PMS_P2;Temp;Humidity;BMP_temperature;BMP_pressure;BME280_temperature;BME280_humidity;BME280_pressure;Samples;Min_cycle;Max_cycle;Signal;HPM_P1;HPM_P2
2022/08/31 00:04:01;;;;;;;3.50;2.90;;;18.50;99.90;;;;;;4972221;28;20229;-71
2022/08/31 00:06:31;;;;;;;3.33;2.90;;;18.50;99.90;;;;;;4971810;28;20170;-71
2022/08/31 00:08:58;;;;;;;3.23;2.70;;;18.50;99.90;;;;;;4971712;28;20580;-71
2022/08/31 00:11:29;;;;;;;5.00;2.90;;;18.40;1.00;;;;;;4971631;28;20658;-70
2022/08/31 00:14:00;;;;;;;3.83;3.00;;;18.40;1.00;;;;;;4971280;28;20216;-71
2022/08/31 00:16:31;;;;;;;3.83;2.87;;;18.40;1.00;;;;;;4971403;28;20208;-70
2022/08/31 00:18:56;;;;;;;2.90;2.60;;;18.40;1.00;;;;;;4971857;28;20172;-72
2022/08/31 00:21:25;;;;;;;2.87;2.63;;;18.30;1.00;;;;;;4971798;28;20322;-72
2022/08/31 00:23:52;;;;;;;3.83;3.10;;;18.40;1.00;;;;;;4970284;28;20532;-71
2022/08/31 00:26:17;;;;;;;3.63;2.50;;;18.40;1.00;;;;;;4971412;28;20247;-71
2022/08/31 00:28:43;;;;;;;3.07;2.70;;;18.40;1.00;;;;;;4971332;28;20564;-71
2022/08/31 00:31:09;;;;;;;3.30;2.83;;;18.40;1.00;;;;;;4971541;28;20632;-71
2022/08/31 00:33:35;;;;;;;3.83;3.13;;;18.40;1.00;;;;;;4971714;28;20184;-71
2022/08/31 00:36:03;;;;;;;4.10;3.03;;;18.40;1.00;;;;;;4971482;28;20570;-70
2022/08/31 00:38:28;;;;;;;3.77;2.63;;;18.30;1.00;;;;;;4971385;28;20178;-71
2022/08/31 00:40:54;;;;;;;4.20;3.17;;;18.30;1.00;;;;;;4971382;28;20543;-70
2022/08/31 00:43:35;;;;;;;3.40;2.80;;;18.30;1.00;;;;;;4971118;28;20168;-72
2022/08/31 00:46:01;;;;;;;2.80;2.60;;;18.30;1.00;;;;;;4971430;28;20175;-71
2022/08/31 00:48:26;;;;;;;4.97;2.63;;;18.30;1.00;;;;;;4971308;28;20183;-71
2022/08/31 00:50:52;;;;;;;4.50;2.80;;;18.20;1.00;;;;;;4971445;28;20180;-71
2022/08/31 00:53:18;;;;;;;3.33;2.60;;;18.20;1.00;;;;;;4971249;28;20274;-71
2022/08/31 00:55:44;;;;;;;3.00;2.80;;;18.20;1.00;;;;;;4971150;28;20215;-71
2022/08/31 00:58:11;;;;;;;3.40;3.10;;;18.30;1.00;;;;;;4970884;28;20176;-70
2022/08/31 01:00:39;;;;;;;5.00;3.10;;;18.20;1.00;;;;;;4971388;28;20236;-71
2022/08/31 01:03:06;;;;;;;6.83;2.83;;;18.20;1.00;;;;;;4971263;28;20179;-70
2022/08/31 01:05:33;;;;;;;6.47;3.17;;;18.30;1.00;;;;;;4971202;28;20180;-71
2022/08/31 01:08:01;;;;;;;3.53;2.80;;;18.30;1.00;;;;;;4970984;28;20184;-71
2022/08/31 01:10:32;;;;;;;3.40;3.10;;;18.20;1.00;;;;;;4971003;28;20270;-71
2022/08/31 01:12:58;;;;;;;3.07;2.80;;;18.20;1.00;;;;;;4970654;28;20699;-71
2022/08/31 01:15:26;;;;;;;2.90;2.60;;;18.20;1.00;;;;;;4970991;28;20223;-72
2022/08/31 01:17:54;;;;;;;3.93;3.10;;;18.20;1.00;;;;;;4970975;28;20173;-71
2022/08/31 01:20:33;;;;;;;3.20;2.93;;;18.20;1.00;;;;;;4971041;28;20180;-71
2022/08/31 01:23:14;;;;;;;3.10;2.83;;;18.20;1.00;;;;;;4970898;28;20160;-71
2022/08/31 01:25:43;;;;;;;3.43;3.13;;;18.20;1.00;;;;;;4971054;28;20198;-71
2022/08/31 01:28:10;;;;;;;3.47;3.00;;;18.20;1.00;;;;;;4970769;28;20632;-72
2022/08/31 01:30:37;;;;;;;4.20;2.93;;;18.20;1.00;;;;;;4970846;28;20203;-71
2022/08/31 01:33:03;;;;;;;4.57;2.63;;;18.10;1.00;;;;;;4970842;28;20168;-70
2022/08/31 01:35:29;;;;;;;7.07;3.40;;;18.20;1.00;;;;;;4970516;28;20219;-71
2022/08/31 01:37:56;;;;;;;5.20;2.87;;;18.10;1.00;;;;;;4971278;28;20187;-71
2022/08/31 01:40:34;;;;;;;3.50;3.20;;;18.10;1.00;;;;;;4973715;28;20180;-71
2022/08/31 01:43:00;;;;;;;3.53;3.23;;;18.10;1.00;;;;;;4974022;28;20172;-71
2022/08/31 01:45:25;;;;;;;3.63;3.33;;;18.10;1.00;;;;;;4973933;28;20183;-71
2022/08/31 01:47:51;;;;;;;2.90;2.70;;;18.10;1.00;;;;;;4973893;28;20187;-71
2022/08/31 01:50:16;;;;;;;3.47;3.27;;;18.00;1.00;;;;;;4973890;28;20245;-71
2022/08/31 01:52:42;;;;;;;5.40;3.37;;;18.00;1.00;;;;;;4973886;28;20247;-71
2022/08/31 01:55:08;;;;;;;4.07;3.00;;;18.10;1.00;;;;;;4973640;28;20250;-71
2022/08/31 01:57:34;;;;;;;5.13;3.33;;;18.20;1.00;;;;;;4973851;28;20638;-71
2022/08/31 02:00:03;;;;;;;3.43;3.13;;;18.20;1.00;;;;;;4973808;28;20212;-71
2022/08/31 02:02:29;;;;;;;3.73;3.30;;;18.20;1.00;;;;;;4973737;28;20168;-71
2022/08/31 02:04:54;;;;;;;3.30;3.00;;;18.10;1.00;;;;;;4973864;28;20191;-71
2022/08/31 02:07:20;;;;;;;4.43;3.07;;;18.00;1.00;;;;;;4973743;28;20179;-71
2022/08/31 02:09:45;;;;;;;3.53;3.30;;;18.10;1.00;;;;;;4973540;28;20180;-71
2022/08/31 02:12:11;;;;;;;3.10;2.90;;;18.10;1.00;;;;;;4973716;28;20180;-71
2022/08/31 02:14:37;;;;;;;3.40;3.20;;;18.10;1.00;;;;;;4973223;28;20702;-71
2022/08/31 02:17:02;;;;;;;3.70;3.10;;;18.00;1.00;;;;;;4972234;28;20216;-71
2022/08/31 02:19:28;;;;;;;3.10;2.67;;;18.00;1.00;;;;;;4973509;28;20183;-71
2022/08/31 02:21:53;;;;;;;4.17;3.20;;;18.00;1.00;;;;;;4973570;28;20249;-71
2022/08/31 02:24:19;;;;;;;5.30;3.17;;;18.00;1.00;;;;;;4972993;28;20180;-71
2022/08/31 02:26:45;;;;;;;4.23;3.50;;;18.00;1.00;;;;;;4973226;28;20176;-71
2022/08/31 02:29:10;;;;;;;4.43;3.00;;;18.00;1.00;;;;;;4973437;28;20164;-71
2022/08/31 02:31:36;;;;;;;3.60;3.30;;;18.10;1.00;;;;;;4973165;28;20172;-71
2022/08/31 02:34:02;;;;;;;4.53;3.20;;;18.10;1.00;;;;;;4972115;28;20178;-71
2022/08/31 02:36:27;;;;;;;3.30;3.00;;;18.10;1.00;;;;;;4973205;28;20179;-71
2022/08/31 02:38:53;;;;;;;4.03;3.30;;;18.00;1.00;;;;;;4973124;28;20172;-71
2022/08/31 02:41:18;;;;;;;4.60;3.10;;;18.00;1.00;;;;;;4972979;28;20529;-71
2022/08/31 02:43:44;;;;;;;3.50;3.17;;;18.00;1.00;;;;;;4973133;28;20588;-71
2022/08/31 02:46:10;;;;;;;5.50;3.17;;;17.90;1.00;;;;;;4972808;28;20184;-70
2022/08/31 02:48:36;;;;;;;3.50;3.20;;;17.90;1.00;;;;;;4972881;28;20175;-70
2022/08/31 02:51:04;;;;;;;3.37;3.17;;;18.00;1.00;;;;;;4972858;28;20176;-70
2022/08/31 02:53:30;;;;;;;3.77;3.47;;;18.00;1.00;;;;;;4972597;28;20168;-70
2022/08/31 02:55:56;;;;;;;3.83;3.53;;;18.00;1.00;;;;;;4972711;28;20295;-70
2022/08/31 02:58:21;;;;;;;5.50;3.47;;;17.90;1.00;;;;;;4972580;28;20175;-70
2022/08/31 03:00:47;;;;;;;5.63;3.70;;;17.80;1.00;;;;;;4972643;28;20631;-70
2022/08/31 03:03:13;;;;;;;7.93;3.60;;;17.80;1.00;;;;;;4971535;28;20186;-70
2022/08/31 03:05:39;;;;;;;4.47;3.60;;;17.80;1.00;;;;;;4972744;28;20172;-70
2022/08/31 03:08:06;;;;;;;6.53;3.40;;;17.80;1.00;;;;;;4972381;28;20179;-70
2022/08/31 03:10:31;;;;;;;4.27;3.60;;;17.90;1.00;;;;;;4972766;28;20512;-72
2022/08/31 03:12:57;;;;;;;3.90;3.57;;;17.80;1.00;;;;;;4972320;28;20179;-70
2022/08/31 03:15:25;;;;;;;4.43;3.60;;;17.80;1.00;;;;;;4971268;28;20299;-70
2022/08/31 03:17:51;;;;;;;4.07;3.60;;;17.70;1.00;;;;;;4972343;28;20251;-71
2022/08/31 03:20:20;;;;;;;6.03;3.83;;;17.70;1.00;;;;;;4972194;28;20183;-69
2022/08/31 03:22:46;;;;;;;6.37;5.53;;;17.60;1.00;;;;;;4971786;28;20181;-70
2022/08/31 03:25:13;;;;;;;5.10;4.43;;;17.60;1.00;;;;;;4972181;28;20176;-70
2022/08/31 03:27:39;;;;;;;6.13;4.03;;;17.60;1.00;;;;;;4972561;28;20176;-70
2022/08/31 03:30:07;;;;;;;4.40;3.97;;;17.60;1.00;;;;;;4971919;28;20207;-70
2022/08/31 03:32:33;;;;;;;4.53;4.10;;;17.60;1.00;;;;;;4972147;28;20175;-70
2022/08/31 03:34:59;;;;;;;4.63;4.23;;;17.60;1.00;;;;;;4972033;28;20207;-70
2022/08/31 03:37:25;;;;;;;4.00;3.60;;;17.50;1.00;;;;;;4971792;28;20172;-69
2022/08/31 03:39:51;;;;;;;4.30;3.90;;;17.40;1.00;;;;;;4971937;28;20167;-70
2022/08/31 03:42:17;;;;;;;6.63;4.10;;;17.40;1.00;;;;;;4971924;28;20183;-70
2022/08/31 03:44:43;;;;;;;4.33;3.93;;;17.40;1.00;;;;;;4972172;28;20274;-71
2022/08/31 03:47:09;;;;;;;5.13;4.10;;;17.40;1.00;;;;;;4971323;28;20179;-70
2022/08/31 03:49:34;;;;;;;4.63;4.23;;;17.40;1.00;;;;;;4971710;28;20485;-70
2022/08/31 03:52:01;;;;;;;8.00;4.07;;;17.40;1.00;;;;;;4971409;28;20187;-69
2022/08/31 03:54:26;;;;;;;7.03;4.10;;;17.40;1.00;;;;;;4971410;28;20212;-70
2022/08/31 03:56:52;;;;;;;4.57;4.17;;;17.30;1.00;;;;;;4971653;28;20648;-70
2022/08/31 03:59:18;;;;;;;6.60;4.27;;;17.20;1.00;;;;;;4971325;28;20176;-70
2022/08/31 04:01:43;;;;;;;4.53;4.13;;;17.30;1.00;;;;;;4970900;28;20703;-70
2022/08/31 04:04:11;;;;;;;4.60;4.20;;;17.20;1.00;;;;;;4971910;28;20214;-71
2022/08/31 04:06:42;;;;;;;5.00;4.50;;;17.20;1.00;;;;;;4970976;28;20176;-71
2022/08/31 04:09:07;;;;;;;7.80;4.60;;;17.20;1.00;;;;;;4971235;28;20184;-71
2022/08/31 04:11:33;;;;;;;8.20;4.93;;;17.20;1.00;;;;;;4971180;28;20186;-71
2022/08/31 04:13:59;;;;;;;6.03;4.73;;;17.20;1.00;;;;;;4971493;28;20247;-71
2022/08/31 04:16:26;;;;;;;7.90;4.40;;;17.20;1.00;;;;;;4969803;28;20227;-71
2022/08/31 04:18:51;;;;;;;6.17;4.40;;;17.30;1.00;;;;;;4971456;28;20172;-71
2022/08/31 04:21:22;;;;;;;6.43;4.10;;;17.20;1.00;;;;;;4971196;28;20645;-71
2022/08/31 04:23:48;;;;;;;6.77;4.43;;;17.30;1.00;;;;;;4971104;28;20176;-71
2022/08/31 04:26:19;;;;;;;4.77;4.37;;;17.30;1.00;;;;;;4971173;28;20188;-71
2022/08/31 04:28:46;;;;;;;4.90;4.40;;;17.20;1.00;;;;;;4970139;28;20273;-71
2022/08/31 04:31:12;;;;;;;4.80;4.40;;;17.20;1.00;;;;;;4971379;28;20180;-71
2022/08/31 04:33:39;;;;;;;4.70;4.30;;;17.20;1.00;;;;;;4971218;28;20586;-71
2022/08/31 04:36:16;;;;;;;8.77;4.20;;;17.20;1.00;;;;;;4970629;28;20216;-71
2022/08/31 04:38:43;;;;;;;5.17;4.00;;;17.20;1.00;;;;;;4970625;28;20175;-71
2022/08/31 04:41:11;;;;;;;5.03;4.70;;;17.30;1.00;;;;;;4970791;28;20450;-71
2022/08/31 04:43:39;;;;;;;4.60;4.13;;;17.30;1.00;;;;;;4971367;28;20187;-71
2022/08/31 04:46:07;;;;;;;5.97;4.70;;;17.20;1.00;;;;;;4970953;28;20680;-71
2022/08/31 04:48:34;;;;;;;6.20;4.57;;;17.20;2.00;;;;;;4970336;28;20639;-70
2022/08/31 04:51:01;;;;;;;4.90;4.40;;;17.10;2.30;;;;;;4970003;28;20192;-70
2022/08/31 04:53:27;;;;;;;4.80;4.40;;;17.10;2.30;;;;;;4970197;28;20263;-70
2022/08/31 04:55:53;;;;;;;10.30;4.60;;;17.10;4.50;;;;;;4971008;28;20602;-70
2022/08/31 04:58:19;;;;;;;6.00;5.10;;;17.10;7.10;;;;;;4970280;28;20176;-70
2022/08/31 05:00:45;;;;;;;9.27;4.77;;;17.00;8.40;;;;;;4970784;28;20176;-71
2022/08/31 05:03:11;;;;;;;4.67;4.23;;;17.00;11.50;;;;;;4970689;28;20176;-70
2022/08/31 05:05:39;;;;;;;9.10;4.80;;;16.90;12.30;;;;;;4970561;28;20180;-70
2022/08/31 05:08:05;;;;;;;8.33;4.73;;;17.00;11.50;;;;;;4970558;28;20176;-70
2022/08/31 05:10:31;;;;;;;8.47;5.10;;;17.00;10.30;;;;;;4969852;28;20664;-72
2022/08/31 05:12:57;;;;;;;7.23;4.83;;;16.90;11.90;;;;;;4969959;28;20176;-71
2022/08/31 05:15:22;;;;;;;8.17;4.53;;;17.00;12.30;;;;;;4973784;28;20227;-70
2022/08/31 05:17:48;;;;;;;7.20;4.70;;;17.00;12.10;;;;;;4973123;28;20257;-71
2022/08/31 05:20:14;;;;;;;5.43;4.90;;;17.00;12.90;;;;;;4973473;28;20171;-71
2022/08/31 05:22:39;;;;;;;7.30;4.53;;;17.00;11.20;;;;;;4973636;28;20180;-71
2022/08/31 05:25:06;;;;;;;6.33;4.40;;;17.00;9.70;;;;;;4973072;28;20199;-71
2022/08/31 05:27:34;;;;;;;5.10;4.47;;;17.00;7.70;;;;;;4972790;28;20191;-71
2022/08/31 05:29:59;;;;;;;7.27;4.53;;;17.10;5.80;;;;;;4973122;28;20326;-70
2022/08/31 05:32:25;;;;;;;9.50;4.67;;;17.20;5.50;;;;;;4972564;28;20680;-70
2022/08/31 05:34:51;;;;;;;7.10;4.60;;;17.20;1.00;;;;;;4973125;28;20223;-70
2022/08/31 05:37:16;;;;;;;9.50;4.80;;;17.20;1.00;;;;;;4972764;28;20176;-70
2022/08/31 05:39:42;;;;;;;5.20;4.63;;;17.10;1.00;;;;;;4971467;28;20214;-71
2022/08/31 05:42:08;;;;;;;10.43;4.53;;;17.20;3.00;;;;;;4973162;28;20180;-70
2022/08/31 05:44:34;;;;;;;5.00;4.50;;;17.30;1.00;;;;;;4972600;28;20180;-70
2022/08/31 05:47:00;;;;;;;4.60;4.00;;;17.70;1.00;;;;;;4972361;28;20186;-70
2022/08/31 05:49:26;;;;;;;5.40;4.40;;;18.00;1.00;;;;;;4972586;28;20251;-71
2022/08/31 05:51:52;;;;;;;6.17;4.63;;;18.20;1.00;;;;;;4972278;28;20674;-71
2022/08/31 05:54:18;;;;;;;6.07;4.70;;;18.20;1.00;;;;;;4973097;28;20199;-71
2022/08/31 05:56:44;;;;;;;7.80;4.10;;;18.20;1.00;;;;;;4972010;28;20172;-70
2022/08/31 05:59:11;;;;;;;8.87;4.37;;;18.50;1.00;;;;;;4972356;28;20172;-71
2022/08/31 06:01:38;;;;;;;9.40;4.20;;;18.90;1.00;;;;;;4972102;28;20219;-71
2022/08/31 06:04:05;;;;;;;7.13;4.13;;;19.40;1.00;;;;;;4972150;28;20172;-71
2022/08/31 06:06:31;;;;;;;9.07;4.43;;;19.90;1.00;;;;;;4972565;28;20171;-71
2022/08/31 06:08:57;;;;;;;7.68;3.95;;;20.10;1.00;;;;;;4972278;28;20176;-71
2022/08/31 06:11:25;;;;;;;5.50;4.28;;;20.20;99.90;;;;;;4971568;28;20172;-71
2022/08/31 06:13:53;;;;;;;4.05;3.67;;;20.40;99.90;;;;;;4971879;28;20231;-71
2022/08/31 06:16:20;;;;;;;5.50;3.80;;;20.40;67.50;;;;;;4971691;28;20226;-71
2022/08/31 06:18:49;;;;;;;10.52;4.10;;;20.10;99.90;;;;;;4972337;28;20171;-72
2022/08/31 06:21:22;;;;;;;5.22;4.00;;;20.30;99.90;;;;;;4972086;28;20179;-72
2022/08/31 06:23:49;;;;;;;4.60;3.70;;;20.40;1.00;;;;;;4971427;28;20179;-72
2022/08/31 06:26:17;;;;;;;6.53;3.95;;;20.90;1.00;;;;;;4971818;28;20169;-72
2022/08/31 06:28:44;;;;;;;4.55;3.83;;;21.20;1.00;;;;;;4972051;28;20180;-72
2022/08/31 06:31:37;;;;;;;8.80;4.45;;;21.90;1.00;;;;;;4971582;28;20207;-74
2022/08/31 06:34:05;;;;;;;4.85;4.15;;;22.30;1.00;;;;;;4975545;28;20196;-73
2022/08/31 06:36:32;;;;;;;9.15;4.03;;;22.50;1.00;;;;;;4971884;28;20295;-74
2022/08/31 06:38:59;;;;;;;6.05;3.83;;;22.70;62.40;;;;;;4971250;28;20175;-73
2022/08/31 06:41:28;;;;;;;7.22;3.85;;;22.40;1.00;;;;;;4971446;28;20187;-74
2022/08/31 06:43:54;;;;;;;5.78;3.63;;;22.30;99.90;;;;;;4971827;28;20184;-74
2022/08/31 06:46:22;;;;;;;4.60;3.95;;;22.10;1.00;;;;;;4971609;28;20176;-74
2022/08/31 06:48:49;;;;;;;5.45;4.10;;;22.40;95.30;;;;;;4964982;28;20207;-73
2022/08/31 06:51:15;;;;;;;4.40;3.88;;;22.40;1.00;;;;;;4965584;28;20180;-73
2022/08/31 06:53:41;;;;;;;7.57;4.40;;;22.30;1.00;;;;;;4970042;28;20180;-74
2022/08/31 06:56:12;;;;;;;4.53;4.07;;;22.70;1.00;;;;;;4967019;28;20212;-74
2022/08/31 06:58:38;;;;;;;7.75;4.38;;;23.70;99.90;;;;;;4963678;28;20182;-74
2022/08/31 07:01:10;;;;;;;6.47;3.80;;;24.10;61.90;;;;;;4969453;28;20179;-74
2022/08/31 07:03:38;;;;;;;5.82;4.28;;;23.70;99.90;;;;;;4968042;28;20608;-74
2022/08/31 07:06:07;;;;;;;6.00;3.80;;;23.80;99.90;;;;;;4968885;28;20220;-74
2022/08/31 07:08:32;;;;;;;6.03;3.45;;;23.40;99.90;;;;;;4961967;28;20180;-73
2022/08/31 07:10:58;;;;;;;6.55;3.53;;;23.70;99.90;;;;;;4964785;28;20260;-72
2022/08/31 07:13:24;;;;;;;8.73;4.28;;;23.70;99.90;;;;;;4962650;28;20222;-73
2022/08/31 07:15:50;;;;;;;9.80;4.00;;;23.70;69.70;;;;;;4976127;28;20349;-74
2022/08/31 07:18:15;;;;;;;7.88;3.80;;;24.30;1.00;;;;;;4965134;28;20260;-72
2022/08/31 07:20:41;;;;;;;9.80;4.00;;;24.10;1.00;;;;;;4976959;28;20187;-73
2022/08/31 07:23:06;;;;;;;8.00;3.80;;;23.80;1.00;;;;;;4981649;28;20267;-72
2022/08/31 07:25:32;;;;;;;7.30;4.05;;;23.20;99.90;;;;;;4984238;28;20184;-73
2022/08/31 07:27:58;;;;;;;6.25;3.90;;;23.10;99.90;;;;;;4965158;28;20661;-72
2022/08/31 07:30:24;;;;;;;6.45;4.22;;;23.30;99.90;;;;;;4966507;28;20187;-73
2022/08/31 07:32:50;;;;;;;4.03;3.70;;;23.80;99.90;;;;;;5008023;28;20282;-72
2022/08/31 07:35:17;;;;;;;5.38;4.15;;;23.50;63.20;;;;;;4968939;28;20341;-71
2022/08/31 07:43:12;;;;;;;6.05;4.07;;;22.60;1.00;;;;;;4976346;28;20187;-73
2022/08/31 07:45:39;;;;;;;4.20;3.70;;;22.60;1.00;;;;;;4982160;28;20184;-72
2022/08/31 07:48:05;;;;;;;3.90;3.60;;;23.10;99.90;;;;;;4967236;28;20267;-72
2022/08/31 07:50:31;;;;;;;4.68;3.80;;;22.60;1.00;;;;;;4963573;28;20179;-71
2022/08/31 07:52:57;;;;;;;4.40;3.97;;;22.10;99.90;;;;;;4970201;28;20168;-72
2022/08/31 07:55:26;;;;;;;5.18;3.85;;;21.90;1.00;;;;;;4956676;28;20221;-72
2022/08/31 07:57:53;;;;;;;4.93;3.70;;;21.90;51.30;;;;;;4964605;28;20230;-73
2022/08/31 08:00:23;;;;;;;4.78;3.67;;;21.70;99.90;;;;;;4970462;28;20203;-72
2022/08/31 08:02:48;;;;;;;7.55;3.92;;;22.20;99.90;;;;;;4969567;28;20350;-72
2022/08/31 08:05:21;;;;;;;9.00;4.30;;;21.90;1.00;;;;;;4973506;28;20334;-72
2022/08/31 08:07:49;;;;;;;4.90;3.88;;;21.40;99.90;;;;;;4968465;28;20237;-72
2022/08/31 08:10:20;;;;;;;4.55;3.92;;;21.50;99.90;;;;;;4967472;28;20211;-73
2022/08/31 08:12:49;;;;;;;8.45;4.20;;;21.40;99.90;;;;;;4971878;28;20170;-73
2022/08/31 08:15:15;;;;;;;8.18;4.28;;;21.60;1.00;;;;;;4987639;28;20250;-72
2022/08/31 08:17:41;;;;;;;7.38;4.22;;;21.80;99.90;;;;;;4974408;28;20184;-71
2022/08/31 08:20:07;;;;;;;4.43;4.18;;;21.40;1.00;;;;;;4964182;28;20196;-72
2022/08/31 08:22:36;;;;;;;6.07;4.47;;;21.20;99.90;;;;;;4965540;28;20270;-72
2022/08/31 08:25:03;;;;;;;5.60;4.75;;;21.20;1.00;;;;;;4965275;28;20572;-72
2022/08/31 08:27:29;;;;;;;5.80;4.30;;;20.80;1.00;;;;;;4959793;28;20180;-72
2022/08/31 08:29:55;;;;;;;9.93;4.30;;;21.00;1.00;;;;;;4971936;28;20183;-73
2022/08/31 08:32:20;;;;;;;9.25;4.50;;;21.10;99.90;;;;;;4967321;28;20176;-73
2022/08/31 08:34:46;;;;;;;5.57;4.15;;;21.10;99.90;;;;;;4969904;28;20203;-70
2022/08/31 08:37:13;;;;;;;4.75;4.15;;;21.30;99.90;;;;;;4978322;28;20270;-71
2022/08/31 08:39:41;;;;;;;4.88;4.57;;;22.00;97.30;;;;;;4965593;28;20176;-73
2022/08/31 08:42:10;;;;;;;7.45;4.45;;;22.40;1.00;;;;;;4959708;28;20199;-74
2022/08/31 08:44:37;;;;;;;7.60;4.30;;;22.40;1.00;;;;;;4971120;28;20636;-73
2022/08/31 08:47:17;;;;;;;4.57;4.20;;;22.30;99.90;;;;;;4961992;28;20193;-70
2022/08/31 08:49:48;;;;;;;6.22;4.40;;;22.40;1.00;;;;;;4967750;28;20312;-73
2022/08/31 08:52:26;;;;;;;7.43;4.40;;;23.00;99.90;;;;;;4969219;28;20265;-74
2022/08/31 08:54:54;;;;;;;4.22;3.92;;;24.00;1.00;;;;;;4969176;28;20215;-75
2022/08/31 08:57:34;;;;;;;4.40;4.00;;;24.50;1.00;;;;;;4989559;28;20218;-75
2022/08/31 09:00:11;;;;;;;7.00;3.67;;;25.00;1.00;;;;;;4969531;28;20250;-75
2022/08/31 09:02:57;;;;;;;4.13;3.60;;;25.60;1.00;;;;;;5010398;28;20328;-73
2022/08/31 09:05:52;;;;;;;5.45;3.92;;;27.00;99.90;;;;;;4976507;28;20168;-72
2022/08/31 09:08:57;;;;;;;11.10;4.25;;;26.30;99.90;;;;;;4956020;28;20217;-73
2022/08/31 09:12:00;;;;;;;5.32;4.10;;;25.40;99.90;;;;;;4970037;28;20209;-71
2022/08/31 09:14:38;;;;;;;5.35;4.05;;;25.50;99.90;;;;;;4966202;28;20761;-73
2022/08/31 09:17:41;;;;;;;4.22;3.90;;;25.70;99.90;;;;;;4974943;28;20207;-75
2022/08/31 09:20:11;;;;;;;11.60;3.97;;;25.20;99.90;;;;;;4999750;28;20179;-75
2022/08/31 09:22:51;;;;;;;4.43;4.03;;;25.60;99.90;;;;;;4972091;28;20274;-73
2022/08/31 09:25:27;;;;;;;4.35;3.95;;;26.50;99.90;;;;;;4971956;28;20245;-73
2022/08/31 09:27:57;;;;;;;3.90;3.53;;;27.90;99.90;;;;;;4957594;28;20167;-74
2022/08/31 09:30:50;;;;;;;8.80;4.00;;;27.20;99.90;;;;;;4967627;28;20195;-76
2022/08/31 09:33:23;;;;;;;5.05;3.67;;;27.20;99.90;;;;;;4965154;28;20182;-70
2022/08/31 09:35:55;;;;;;;9.55;4.22;;;26.40;99.90;;;;;;5011001;28;20332;-74
2022/08/31 09:38:39;;;;;;;4.43;4.07;;;26.40;99.90;;;;;;4967025;28;20245;-72
2022/08/31 09:41:24;;;;;;;5.85;3.83;;;26.60;99.90;;;;;;4966492;28;20667;-73
2022/08/31 09:43:49;;;;;;;4.82;3.88;;;25.60;99.90;;;;;;4959380;28;20180;-73
2022/08/31 09:46:24;;;;;;;8.80;4.22;;;25.80;99.90;;;;;;4975361;28;20680;-74
2022/08/31 09:48:51;;;;;;;7.20;3.97;;;26.30;99.90;;;;;;4977379;28;20470;-75
2022/08/31 09:51:28;;;;;;;8.50;3.97;;;27.30;99.90;;;;;;4963516;28;20315;-75
2022/08/31 09:57:01;;;;;;;6.80;3.80;;;27.00;99.90;;;;;;4967959;28;20257;-75
2022/08/31 09:59:36;;;;;;;4.85;3.90;;;26.80;99.90;;;;;;4972589;28;20183;-74
2022/08/31 10:02:07;;;;;;;7.60;4.43;;;27.10;99.90;;;;;;4972225;28;20194;-73
2022/08/31 10:04:44;;;;;;;8.57;3.65;;;26.80;99.90;;;;;;4962145;28;20203;-74
2022/08/31 10:07:20;;;;;;;4.22;3.80;;;26.60;99.90;;;;;;4972782;28;20184;-75
2022/08/31 10:10:09;;;;;;;4.30;3.47;;;26.20;99.90;;;;;;4984381;28;20540;-77
2022/08/31 10:12:46;;;;;;;6.20;3.88;;;26.60;99.90;;;;;;4973399;28;20198;-73
2022/08/31 10:15:17;;;;;;;4.97;3.60;;;26.30;99.90;;;;;;4975963;28;20250;-73
2022/08/31 10:18:01;;;;;;;7.95;4.18;;;26.70;99.90;;;;;;4974284;28;20183;-81
2022/08/31 10:20:34;;;;;;;4.38;3.97;;;26.40;99.90;;;;;;4982467;28;20206;-90
2022/08/31 10:23:24;;;;;;;4.30;4.00;;;26.20;99.90;;;;;;5025234;28;20180;-72
2022/08/31 10:25:56;;;;;;;6.38;3.75;;;25.90;99.90;;;;;;4966844;28;20180;-71
2022/08/31 10:28:40;;;;;;;3.63;3.30;;;26.50;99.90;;;;;;5000635;28;20233;-73
2022/08/31 10:31:19;;;;;;;9.65;4.00;;;26.90;99.90;;;;;;4961669;28;20187;-74
2022/08/31 10:36:38;;;;;;;3.67;3.33;;;28.30;99.90;;;;;;4968931;28;20603;-75
2022/08/31 10:39:17;;;;;;;4.22;3.50;;;28.60;99.90;;;;;;4976949;28;20547;-74
2022/08/31 10:41:48;;;;;;;5.57;3.88;;;27.10;99.90;;;;;;4967203;28;20651;-73
2022/08/31 10:44:25;;;;;;;6.00;4.03;;;26.60;99.90;;;;;;4963192;28;20196;-73
2022/08/31 10:46:57;;;;;;;9.68;4.38;;;26.50;99.90;;;;;;4966707;28;20631;-74
2022/08/31 10:49:25;;;;;;;10.73;4.47;;;26.10;99.90;;;;;;4985760;28;20233;-72
2022/08/31 10:52:01;;;;;;;4.57;4.00;;;26.10;99.90;;;;;;4969058;28;20191;-73
2022/08/31 10:55:04;;;;;;;5.55;3.78;;;25.70;99.90;;;;;;5024615;28;20172;-72
2022/08/31 10:57:53;;;;;;;4.68;4.05;;;26.40;99.90;;;;;;4988748;28;20191;-71
2022/08/31 11:00:41;;;;;;;5.95;4.38;;;26.20;99.90;;;;;;4965055;28;20259;-71
2022/08/31 11:03:28;;;;;;;5.55;4.40;;;26.30;99.90;;;;;;4985018;28;20520;-74
2022/08/31 11:05:57;;;;;;;7.72;4.50;;;26.10;99.90;;;;;;5006127;28;20620;-71
2022/08/31 11:08:56;;;;;;;9.95;4.50;;;26.30;99.90;;;;;;5039725;28;20369;-72
2022/08/31 11:11:38;;;;;;;4.50;3.67;;;26.20;99.90;;;;;;5056713;28;20156;-73
2022/08/31 11:14:22;;;;;;;5.90;4.15;;;25.40;99.90;;;;;;4961460;28;20227;-72
2022/08/31 11:17:01;;;;;;;5.20;4.30;;;25.10;99.90;;;;;;5036781;28;20200;-72
2022/08/31 11:19:37;;;;;;;4.80;3.75;;;25.00;99.90;;;;;;5004851;28;20179;-72
2022/08/31 11:22:36;;;;;;;7.07;4.60;;;25.00;99.90;;;;;;5050561;28;20224;-73
2022/08/31 11:25:33;;;;;;;4.38;3.97;;;24.70;99.90;;;;;;5044933;28;20188;-75
2022/08/31 11:28:06;;;;;;;7.32;4.65;;;24.90;99.90;;;;;;5024912;28;20185;-74
2022/08/31 11:30:36;;;;;;;4.70;4.28;;;25.30;99.90;;;;;;4973784;28;20180;-72
2022/08/31 11:33:09;;;;;;;9.50;4.50;;;25.20;99.90;;;;;;4961857;28;20267;-69
2022/08/31 11:35:59;;;;;;;4.72;3.95;;;24.60;99.90;;;;;;4969841;28;20216;-72
2022/08/31 11:39:00;;;;;;;5.93;4.45;;;24.70;99.90;;;;;;5025618;28;20172;-73
2022/08/31 11:41:46;;;;;;;8.13;4.53;;;24.50;99.90;;;;;;4963641;28;20183;-73
2022/08/31 11:44:38;;;;;;;6.57;4.90;;;24.50;99.90;;;;;;4973247;28;20530;-73
2022/08/31 11:47:28;;;;;;;6.55;4.53;;;24.10;99.90;;;;;;4965435;28;20226;-72
2022/08/31 11:50:04;;;;;;;4.63;4.22;;;24.80;99.90;;;;;;4998267;28;20290;-73
2022/08/31 11:52:52;;;;;;;6.25;4.32;;;25.30;99.90;;;;;;4971157;28;20270;-74
2022/08/31 11:55:29;;;;;;;5.57;3.90;;;25.70;99.90;;;;;;4979445;28;20233;-72
2022/08/31 11:58:08;;;;;;;5.60;4.18;;;25.60;99.90;;;;;;4962771;28;20211;-76
2022/08/31 12:00:56;;;;;;;8.18;4.07;;;25.30;99.90;;;;;;4980385;28;20251;-74
2022/08/31 12:03:50;;;;;;;7.25;4.57;;;25.30;99.90;;;;;;4966023;28;20172;-73
2022/08/31 12:06:26;;;;;;;7.47;4.28;;;25.40;99.90;;;;;;4974170;28;20314;-74
2022/08/31 12:09:00;;;;;;;4.38;3.97;;;25.80;99.90;;;;;;4969550;28;20183;-72
2022/08/31 12:11:43;;;;;;;5.13;4.63;;;25.10;99.90;;;;;;4967659;28;20194;-75
2022/08/31 12:14:33;;;;;;;5.03;4.63;;;24.90;99.90;;;;;;4966943;28;20231;-73
2022/08/31 12:17:20;;;;;;;6.65;4.60;;;25.00;99.90;;;;;;4966483;28;20206;-73
2022/08/31 12:20:01;;;;;;;5.70;5.07;;;24.60;99.90;;;;;;4969363;28;20214;-74
2022/08/31 12:25:40;;;;;;;5.68;5.15;;;24.50;99.90;;;;;;4971904;28;20638;-73
2022/08/31 12:28:29;;;;;;;7.82;4.63;;;24.50;99.90;;;;;;4954055;28;20275;-74
2022/08/31 12:31:00;;;;;;;7.30;5.72;;;24.50;99.90;;;;;;4951197;28;20264;-72
2022/08/31 12:33:27;;;;;;;5.10;4.60;;;24.50;99.90;;;;;;4970632;28;20544;-74
2022/08/31 12:35:56;;;;;;;5.40;4.45;;;24.60;99.90;;;;;;4968154;28;21316;-74
2022/08/31 12:38:26;;;;;;;5.03;4.40;;;24.70;99.90;;;;;;4969495;28;20188;-69
2022/08/31 12:40:54;;;;;;;11.68;6.28;;;24.90;99.90;;;;;;4968690;28;20184;-74
2022/08/31 12:43:26;;;;;;;11.40;6.30;;;25.30;99.90;;;;;;4968756;28;20179;-73
2022/08/31 12:46:05;;;;;;;5.68;4.95;;;25.40;99.90;;;;;;4989049;28;20214;-72
2022/08/31 12:49:19;;;;;;;7.65;5.72;;;25.10;99.90;;;;;;4982765;28;20229;-75
2022/08/31 12:51:53;;;;;;;7.10;5.22;;;24.80;99.90;;;;;;5010581;28;20283;-73
2022/08/31 12:54:37;;;;;;;6.35;5.75;;;24.80;99.90;;;;;;4988704;28;20688;-74
2022/08/31 12:57:31;;;;;;;9.00;5.90;;;24.90;99.90;;;;;;4997876;28;20619;-72
2022/08/31 13:00:06;;;;;;;7.57;6.15;;;24.90;99.90;;;;;;4969765;28;20184;-72
2022/08/31 13:02:33;;;;;;;8.43;6.82;;;25.10;99.90;;;;;;4959131;28;20169;-75
2022/08/31 13:04:59;;;;;;;7.70;5.43;;;24.90;99.90;;;;;;4968048;28;20497;-73
2022/08/31 13:07:31;;;;;;;7.10;6.40;;;25.20;99.90;;;;;;4972055;28;20186;-73
2022/08/31 13:10:10;;;;;;;9.65;7.10;;;25.20;99.90;;;;;;4975935;28;20187;-74
2022/08/31 13:12:36;;;;;;;9.80;6.18;;;24.80;99.90;;;;;;4969568;28;20191;-74
2022/08/31 13:15:04;;;;;;;7.13;6.10;;;24.90;99.90;;;;;;4971818;28;20319;-73
2022/08/31 13:17:36;;;;;;;7.65;6.18;;;25.20;99.90;;;;;;4973477;28;20179;-75
2022/08/31 13:20:02;;;;;;;12.68;6.00;;;25.30;99.90;;;;;;4968752;28;20172;-71
2022/08/31 13:22:38;;;;;;;7.55;6.80;;;25.60;99.90;;;;;;4971343;28;20183;-73
2022/08/31 13:25:34;;;;;;;7.00;6.35;;;25.60;99.90;;;;;;4980933;28;20167;-73
2022/08/31 13:28:06;;;;;;;6.78;6.13;;;25.40;99.90;;;;;;4976280;28;20168;-70
2022/08/31 13:30:37;;;;;;;8.52;5.45;;;25.20;99.90;;;;;;4970390;28;20483;-72